Terminal Aerodrome Forecast
Issued by NWS Wilmington, NC

Home | Current Version | Previous Version | Text Only | Print | Product List | Glossary On
Versions: 1 2 3 4 5 6 7 8 9 10 11 12 13 14 15 16 17 18
207
FTUS42 KILM 180540
TAFILM
TAF
KILM 180540Z 1806/1906 23005KT 3SM BR OVC005
      TEMPO 1806/1810 2SM BR OVC002
     FM181000 33007KT P6SM OVC007
     FM181300 01006KT P6SM OVC015
     FM181400 04007KT P6SM SCT050 SCT250
     FM190000 06007KT P6SM OVC050=

USA.gov is the U.S. government's official web portal to all federal, state and local government web resources and services.